sensor_id;sensor_type;location;lat;lon;timestamp;pressure;altitude;pressure_sealevel;temperature;humidity
3960;BME280;1994;48.640;8.894;2024-02-04T00:00:35;97273.63;;;8.05;88.51
3960;BME280;1994;48.640;8.894;2024-02-04T00:03:02;97274.00;;;8.02;88.61
3960;BME280;1994;48.640;8.894;2024-02-04T00:05:29;97258.66;;;7.94;89.01
3960;BME280;1994;48.640;8.894;2024-02-04T00:07:55;97269.78;;;7.94;88.95
3960;BME280;1994;48.640;8.894;2024-02-04T00:10:20;97269.22;;;7.99;89.10
3960;BME280;1994;48.640;8.894;2024-02-04T00:12:46;97264.88;;;8.06;88.23
3960;BME280;1994;48.640;8.894;2024-02-04T00:15:12;97264.88;;;8.06;88.05
3960;BME280;1994;48.640;8.894;2024-02-04T00:17:38;97266.88;;;8.04;88.27
3960;BME280;1994;48.640;8.894;2024-02-04T00:20:04;97257.78;;;8.08;88.19
3960;BME280;1994;48.640;8.894;2024-02-04T00:22:32;97269.63;;;7.96;88.81
3960;BME280;1994;48.640;8.894;2024-02-04T00:24:59;97238.66;;;7.96;88.89
3960;BME280;1994;48.640;8.894;2024-02-04T00:27:33;97220.38;;;7.91;89.22
3960;BME280;1994;48.640;8.894;2024-02-04T00:29:59;97225.13;;;7.94;88.89
3960;BME280;1994;48.640;8.894;2024-02-04T00:32:26;97233.88;;;7.93;88.43
3960;BME280;1994;48.640;8.894;2024-02-04T00:34:52;97221.56;;;7.95;88.50
3960;BME280;1994;48.640;8.894;2024-02-04T00:37:19;97214.00;;;7.87;88.75
3960;BME280;1994;48.640;8.894;2024-02-04T00:39:45;97208.47;;;7.90;88.90
3960;BME280;1994;48.640;8.894;2024-02-04T00:42:11;97213.63;;;7.90;88.64
3960;BME280;1994;48.640;8.894;2024-02-04T00:44:37;97219.50;;;7.84;89.16
3960;BME280;1994;48.640;8.894;2024-02-04T00:47:03;97204.03;;;7.84;89.11
3960;BME280;1994;48.640;8.894;2024-02-04T00:49:28;97201.69;;;7.89;88.95
3960;BME280;1994;48.640;8.894;2024-02-04T00:51:54;97201.63;;;7.76;89.04
3960;BME280;1994;48.640;8.894;2024-02-04T00:54:20;97198.44;;;7.74;89.60
3960;BME280;1994;48.640;8.894;2024-02-04T00:56:46;97196.09;;;7.79;89.25
3960;BME280;1994;48.640;8.894;2024-02-04T00:59:12;97197.06;;;7.78;89.56
3960;BME280;1994;48.640;8.894;2024-02-04T01:01:38;97197.28;;;7.76;89.58
3960;BME280;1994;48.640;8.894;2024-02-04T01:04:04;97203.38;;;7.75;90.20
3960;BME280;1994;48.640;8.894;2024-02-04T01:06:30;97202.75;;;7.67;90.41
3960;BME280;1994;48.640;8.894;2024-02-04T01:08:56;97195.91;;;7.53;90.69
3960;BME280;1994;48.640;8.894;2024-02-04T01:11:22;97193.09;;;7.48;91.24
3960;BME280;1994;48.640;8.894;2024-02-04T01:13:48;97186.72;;;7.44;91.66
3960;BME280;1994;48.640;8.894;2024-02-04T01:16:14;97183.56;;;7.42;92.00
3960;BME280;1994;48.640;8.894;2024-02-04T01:18:40;97195.81;;;7.40;92.08
3960;BME280;1994;48.640;8.894;2024-02-04T01:21:06;97198.63;;;7.45;92.09
3960;BME280;1994;48.640;8.894;2024-02-04T01:23:31;97195.81;;;7.40;92.11
3960;BME280;1994;48.640;8.894;2024-02-04T01:25:57;97182.75;;;7.41;92.15
3960;BME280;1994;48.640;8.894;2024-02-04T01:28:24;97171.66;;;7.41;91.88
3960;BME280;1994;48.640;8.894;2024-02-04T01:30:50;97169.69;;;7.43;91.57
3960;BME280;1994;48.640;8.894;2024-02-04T01:33:16;97161.72;;;7.38;91.71
3960;BME280;1994;48.640;8.894;2024-02-04T01:35:42;97158.94;;;7.39;91.82
3960;BME280;1994;48.640;8.894;2024-02-04T01:38:08;97159.50;;;7.35;92.13
3960;BME280;1994;48.640;8.894;2024-02-04T01:40:33;97168.44;;;7.39;92.02
3960;BME280;1994;48.640;8.894;2024-02-04T01:42:59;97163.22;;;7.26;92.46
3960;BME280;1994;48.640;8.894;2024-02-04T01:45:25;97159.66;;;7.27;92.34
3960;BME280;1994;48.640;8.894;2024-02-04T01:47:51;97167.75;;;7.24;92.10
3960;BME280;1994;48.640;8.894;2024-02-04T01:50:18;97175.94;;;7.34;91.87
3960;BME280;1994;48.640;8.894;2024-02-04T01:52:44;97185.09;;;7.36;91.94
3960;BME280;1994;48.640;8.894;2024-02-04T01:55:11;97180.09;;;7.35;92.00
3960;BME280;1994;48.640;8.894;2024-02-04T01:57:37;97175.09;;;7.27;92.17
3960;BME280;1994;48.640;8.894;2024-02-04T02:00:04;97179.34;;;7.34;92.13
3960;BME280;1994;48.640;8.894;2024-02-04T02:02:31;97177.97;;;7.38;91.97
3960;BME280;1994;48.640;8.894;2024-02-04T02:04:59;97177.94;;;7.32;92.11
3960;BME280;1994;48.640;8.894;2024-02-04T02:07:25;97182.69;;;7.35;92.10
3960;BME280;1994;48.640;8.894;2024-02-04T02:09:53;97192.16;;;7.28;91.84
3960;BME280;1994;48.640;8.894;2024-02-04T02:12:39;97186.25;;;7.34;92.27
3960;BME280;1994;48.640;8.894;2024-02-04T02:15:21;97181.09;;;7.34;92.00
3960;BME280;1994;48.640;8.894;2024-02-04T02:18:02;97171.19;;;7.31;92.37
3960;BME280;1994;48.640;8.894;2024-02-04T02:21:02;97170.56;;;7.29;92.63
3960;BME280;1994;48.640;8.894;2024-02-04T02:23:36;97167.63;;;7.32;91.75
3960;BME280;1994;48.640;8.894;2024-02-04T02:26:06;97174.22;;;7.41;91.87
3960;BME280;1994;48.640;8.894;2024-02-04T02:28:32;97162.69;;;7.37;91.96
3960;BME280;1994;48.640;8.894;2024-02-04T02:30:58;97171.19;;;7.31;92.38
3960;BME280;1994;48.640;8.894;2024-02-04T02:33:24;97163.44;;;7.31;92.53
3960;BME280;1994;48.640;8.894;2024-02-04T02:35:56;97161.88;;;7.30;92.68
3960;BME280;1994;48.640;8.894;2024-02-04T02:38:44;97163.38;;;7.24;92.99
3960;BME280;1994;48.640;8.894;2024-02-04T02:41:13;97167.97;;;7.29;92.87
3960;BME280;1994;48.640;8.894;2024-02-04T02:43:43;97181.84;;;7.28;93.14
3960;BME280;1994;48.640;8.894;2024-02-04T02:46:10;97177.38;;;7.15;93.69
3960;BME280;1994;48.640;8.894;2024-02-04T02:48:36;97172.28;;;7.22;93.83
3960;BME280;1994;48.640;8.894;2024-02-04T02:51:02;97175.63;;;7.16;94.30
3960;BME280;1994;48.640;8.894;2024-02-04T02:53:28;97168.13;;;7.21;94.01
3960;BME280;1994;48.640;8.894;2024-02-04T02:55:54;97177.09;;;7.25;93.71
3960;BME280;1994;48.640;8.894;2024-02-04T02:58:20;97179.78;;;7.17;94.38
3960;BME280;1994;48.640;8.894;2024-02-04T03:00:45;97176.63;;;7.21;94.19
3960;BME280;1994;48.640;8.894;2024-02-04T03:03:11;97177.09;;;7.25;93.98
3960;BME280;1994;48.640;8.894;2024-02-04T03:05:37;97169.13;;;7.20;94.12
3960;BME280;1994;48.640;8.894;2024-02-04T03:08:04;97167.53;;;7.19;94.41
3960;BME280;1994;48.640;8.894;2024-02-04T03:10:30;97171.06;;;7.18;94.73
3960;BME280;1994;48.640;8.894;2024-02-04T03:12:55;97174.28;;;7.20;94.47
3960;BME280;1994;48.640;8.894;2024-02-04T03:15:21;97168.38;;;7.26;94.32
3960;BME280;1994;48.640;8.894;2024-02-04T03:17:47;97175.03;;;7.20;94.40
3960;BME280;1994;48.640;8.894;2024-02-04T03:20:13;97176.69;;;7.28;94.18
3960;BME280;1994;48.640;8.894;2024-02-04T03:22:39;97178.28;;;7.29;93.88
3960;BME280;1994;48.640;8.894;2024-02-04T03:25:05;97188.59;;;7.29;93.79
3960;BME280;1994;48.640;8.894;2024-02-04T03:27:31;97187.38;;;7.25;94.18
3960;BME280;1994;48.640;8.894;2024-02-04T03:29:57;97173.13;;;7.29;93.74
3960;BME280;1994;48.640;8.894;2024-02-04T03:32:22;97165.41;;;7.29;94.06
3960;BME280;1994;48.640;8.894;2024-02-04T03:34:48;97166.63;;;7.33;93.75
3960;BME280;1994;48.640;8.894;2024-02-04T03:37:14;97167.63;;;7.32;93.73
3960;BME280;1994;48.640;8.894;2024-02-04T03:39:40;97167.63;;;7.32;93.83
3960;BME280;1994;48.640;8.894;2024-02-04T03:42:05;97177.69;;;7.27;93.90
3960;BME280;1994;48.640;8.894;2024-02-04T03:44:31;97165.63;;;7.34;93.66
3960;BME280;1994;48.640;8.894;2024-02-04T03:46:57;97169.94;;;7.27;93.92
3960;BME280;1994;48.640;8.894;2024-02-04T03:49:23;97149.00;;;7.36;93.63
3960;BME280;1994;48.640;8.894;2024-02-04T03:51:48;97135.09;;;7.31;93.65
3960;BME280;1994;48.640;8.894;2024-02-04T03:54:14;97143.47;;;7.39;92.93
3960;BME280;1994;48.640;8.894;2024-02-04T03:56:41;97144.78;;;7.29;93.66
3960;BME280;1994;48.640;8.894;2024-02-04T03:59:08;97131.47;;;7.25;93.73
3960;BME280;1994;48.640;8.894;2024-02-04T04:01:36;97125.56;;;7.25;93.87
3960;BME280;1994;48.640;8.894;2024-02-04T04:04:02;97130.31;;;7.28;93.41
3960;BME280;1994;48.640;8.894;2024-02-04T04:06:28;97138.66;;;7.30;93.30
3960;BME280;1994;48.640;8.894;2024-02-04T04:08:54;97135.84;;;7.25;93.56
3960;BME280;1994;48.640;8.894;2024-02-04T04:11:19;97130.47;;;7.20;93.89
3960;BME280;1994;48.640;8.894;2024-02-04T04:13:45;97135.00;;;7.18;93.64
3960;BME280;1994;48.640;8.894;2024-02-04T04:16:11;97138.44;;;7.25;93.44
3960;BME280;1994;48.640;8.894;2024-02-04T04:18:38;97154.00;;;7.17;93.73
3960;BME280;1994;48.640;8.894;2024-02-04T04:21:04;97159.28;;;7.30;93.37
3960;BME280;1994;48.640;8.894;2024-02-04T04:23:29;97168.38;;;7.26;93.29
3960;BME280;1994;48.640;8.894;2024-02-04T04:25:55;97167.13;;;7.22;93.56
3960;BME280;1994;48.640;8.894;2024-02-04T04:28:21;97143.28;;;7.13;94.23
3960;BME280;1994;48.640;8.894;2024-02-04T04:30:47;97147.22;;;7.09;93.80
3960;BME280;1994;48.640;8.894;2024-02-04T04:33:12;97142.13;;;7.16;93.66
3960;BME280;1994;48.640;8.894;2024-02-04T04:35:38;97135.38;;;7.15;93.83
3960;BME280;1994;48.640;8.894;2024-02-04T04:38:04;97131.47;;;7.19;93.73
3960;BME280;1994;48.640;8.894;2024-02-04T04:40:30;97129.38;;;7.08;93.77
3960;BME280;1994;48.640;8.894;2024-02-04T04:42:57;97128.66;;;7.14;93.39
3960;BME280;1994;48.640;8.894;2024-02-04T04:45:23;97132.19;;;7.13;93.39
3960;BME280;1994;48.640;8.894;2024-02-04T04:47:48;97144.09;;;7.14;93.80
3960;BME280;1994;48.640;8.894;2024-02-04T04:50:15;97154.00;;;7.17;93.85
3960;BME280;1994;48.640;8.894;2024-02-04T04:52:41;97151.59;;;7.09;93.48
3960;BME280;1994;48.640;8.894;2024-02-04T04:55:07;97159.44;;;7.01;94.25
3960;BME280;1994;48.640;8.894;2024-02-04T04:57:33;97164.22;;;7.04;93.90
3960;BME280;1994;48.640;8.894;2024-02-04T04:59:58;97170.97;;;7.05;93.74
3960;BME280;1994;48.640;8.894;2024-02-04T05:02:29;97170.38;;;7.03;93.98
3960;BME280;1994;48.640;8.894;2024-02-04T05:04:55;97171.09;;;6.97;94.28
3960;BME280;1994;48.640;8.894;2024-02-04T05:07:20;97163.25;;;6.84;95.08
3960;BME280;1994;48.640;8.894;2024-02-04T05:09:47;97171.09;;;6.97;94.36
3960;BME280;1994;48.640;8.894;2024-02-04T05:12:13;97169.50;;;6.96;94.50
3960;BME280;1994;48.640;8.894;2024-02-04T05:14:38;97176.13;;;7.05;94.29
3960;BME280;1994;48.640;8.894;2024-02-04T05:17:05;97184.03;;;7.03;94.10
3960;BME280;1994;48.640;8.894;2024-02-04T05:19:31;97174.38;;;7.12;93.75
3960;BME280;1994;48.640;8.894;2024-02-04T05:21:57;97181.34;;;7.11;93.66
3960;BME280;1994;48.640;8.894;2024-02-04T05:24:23;97184.69;;;7.12;93.99
3960;BME280;1994;48.640;8.894;2024-02-04T05:26:48;97183.47;;;7.08;93.60
3960;BME280;1994;48.640;8.894;2024-02-04T05:29:14;97181.78;;;7.21;93.39
3960;BME280;1994;48.640;8.894;2024-02-04T05:31:42;97181.50;;;7.10;93.46
3960;BME280;1994;48.640;8.894;2024-02-04T05:34:08;97178.56;;;7.13;93.62
3960;BME280;1994;48.640;8.894;2024-02-04T05:36:34;97188.13;;;7.19;93.35
3960;BME280;1994;48.640;8.894;2024-02-04T05:39:13;97186.53;;;7.18;93.39
3960;BME280;1994;48.640;8.894;2024-02-04T05:41:40;97187.25;;;7.12;93.33
3960;BME280;1994;48.640;8.894;2024-02-04T05:44:07;97186.16;;;7.21;93.32
3960;BME280;1994;48.640;8.894;2024-02-04T05:46:38;97189.72;;;7.20;93.29
3960;BME280;1994;48.640;8.894;2024-02-04T05:49:04;97186.91;;;7.15;93.37
3960;BME280;1994;48.640;8.894;2024-02-04T05:51:38;97186.03;;;7.08;93.83
3960;BME280;1994;48.640;8.894;2024-02-04T05:54:08;97184.88;;;7.10;93.99
3960;BME280;1994;48.640;8.894;2024-02-04T05:56:34;97180.16;;;7.14;93.89
3960;BME280;1994;48.640;8.894;2024-02-04T05:59:00;97182.69;;;7.07;94.32
3960;BME280;1994;48.640;8.894;2024-02-04T06:01:25;97191.44;;;7.13;94.33
3960;BME280;1994;48.640;8.894;2024-02-04T06:03:51;97198.81;;;7.16;94.16
3960;BME280;1994;48.640;8.894;2024-02-04T06:06:18;97197.97;;;7.09;94.56
3960;BME280;1994;48.640;8.894;2024-02-04T06:08:46;97196.34;;;7.08;94.95
3960;BME280;1994;48.640;8.894;2024-02-04T06:11:13;97184.84;;;7.04;95.27
3960;BME280;1994;48.640;8.894;2024-02-04T06:13:44;97190.97;;;7.03;95.07
3960;BME280;1994;48.640;8.894;2024-02-04T06:16:10;97187.59;;;7.02;95.48
3960;BME280;1994;48.640;8.894;2024-02-04T06:18:40;97199.16;;;7.13;95.37
3960;BME280;1994;48.640;8.894;2024-02-04T06:21:07;97190.84;;;7.11;95.45
3960;BME280;1994;48.640;8.894;2024-02-04T06:23:33;97194.00;;;7.13;95.45
3960;BME280;1994;48.640;8.894;2024-02-04T06:26:00;97191.00;;;7.09;95.46
3960;BME280;1994;48.640;8.894;2024-02-04T06:28:26;97198.81;;;7.16;95.31
3960;BME280;1994;48.640;8.894;2024-02-04T06:30:51;97203.59;;;7.19;95.30
3960;BME280;1994;48.640;8.894;2024-02-04T06:33:17;97198.13;;;7.28;94.52
3960;BME280;1994;48.640;8.894;2024-02-04T06:35:43;97202.53;;;7.34;93.91
3960;BME280;1994;48.640;8.894;2024-02-04T06:38:09;97193.81;;;7.35;93.69
3960;BME280;1994;48.640;8.894;2024-02-04T06:40:35;97198.22;;;7.41;93.54
3960;BME280;1994;48.640;8.894;2024-02-04T06:43:00;97185.13;;;7.43;93.46
3960;BME280;1994;48.640;8.894;2024-02-04T06:45:26;97195.81;;;7.40;93.29
3960;BME280;1994;48.640;8.894;2024-02-04T06:47:52;97192.13;;;7.49;93.03
3960;BME280;1994;48.640;8.894;2024-02-04T06:50:18;97194.34;;;7.52;92.71
3960;BME280;1994;48.640;8.894;2024-02-04T06:52:44;97187.19;;;7.54;92.64
3960;BME280;1994;48.640;8.894;2024-02-04T06:55:10;97184.97;;;7.51;92.71
3960;BME280;1994;48.640;8.894;2024-02-04T06:57:36;97190.53;;;7.48;92.71
3960;BME280;1994;48.640;8.894;2024-02-04T07:00:03;97191.75;;;7.52;92.62
3960;BME280;1994;48.640;8.894;2024-02-04T07:02:37;97197.50;;;7.54;92.56
3960;BME280;1994;48.640;8.894;2024-02-04T07:05:03;97200.66;;;7.49;92.64
3960;BME280;1994;48.640;8.894;2024-02-04T07:07:29;97192.34;;;7.54;92.24
3960;BME280;1994;48.640;8.894;2024-02-04T07:09:56;97188.94;;;7.47;92.91
3960;BME280;1994;48.640;8.894;2024-02-04T07:12:22;97185.50;;;7.40;93.27
3960;BME280;1994;48.640;8.894;2024-02-04T07:14:48;97187.56;;;7.51;92.59
3960;BME280;1994;48.640;8.894;2024-02-04T07:17:14;97186.38;;;7.53;92.75
3960;BME280;1994;48.640;8.894;2024-02-04T07:19:39;97178.00;;;7.45;92.88
3960;BME280;1994;48.640;8.894;2024-02-04T07:22:05;97171.13;;;7.52;92.70
3960;BME280;1994;48.640;8.894;2024-02-04T07:24:31;97178.53;;;7.61;92.63
3960;BME280;1994;48.640;8.894;2024-02-04T07:26:57;97166.19;;;7.57;92.43
3960;BME280;1994;48.640;8.894;2024-02-04T07:29:22;97165.81;;;7.60;92.59
3960;BME280;1994;48.640;8.894;2024-02-04T07:31:48;97159.97;;;7.45;93.26
3960;BME280;1994;48.640;8.894;2024-02-04T07:34:14;97158.56;;;7.42;93.22
3960;BME280;1994;48.640;8.894;2024-02-04T07:36:40;97160.25;;;7.56;93.17
3960;BME280;1994;48.640;8.894;2024-02-04T07:39:06;97164.56;;;7.49;93.07
3960;BME280;1994;48.640;8.894;2024-02-04T07:41:31;97170.50;;;7.50;93.08
3960;BME280;1994;48.640;8.894;2024-02-04T07:43:58;97173.25;;;7.42;93.85
3960;BME280;1994;48.640;8.894;2024-02-04T07:46:23;97168.91;;;7.49;93.73
3960;BME280;1994;48.640;8.894;2024-02-04T07:48:49;97176.88;;;7.54;93.64
3960;BME280;1994;48.640;8.894;2024-02-04T07:51:15;97175.66;;;7.50;93.58
3960;BME280;1994;48.640;8.894;2024-02-04T07:53:41;97176.72;;;7.62;93.44
3960;BME280;1994;48.640;8.894;2024-02-04T07:56:07;97181.00;;;7.76;92.62
3960;BME280;1994;48.640;8.894;2024-02-04T07:58:33;97177.38;;;7.70;92.63
3960;BME280;1994;48.640;8.894;2024-02-04T08:00:59;97176.59;;;7.70;92.96
3960;BME280;1994;48.640;8.894;2024-02-04T08:03:25;97171.09;;;7.79;92.32
3960;BME280;1994;48.640;8.894;2024-02-04T08:05:51;97162.81;;;7.90;91.84
3960;BME280;1994;48.640;8.894;2024-02-04T08:08:16;97159.28;;;7.98;90.94
3960;BME280;1994;48.640;8.894;2024-02-04T08:10:42;97170.81;;;8.08;90.61
3960;BME280;1994;48.640;8.894;2024-02-04T08:13:08;97152.72;;;8.42;88.50
3960;BME280;1994;48.640;8.894;2024-02-04T08:15:34;97154.38;;;8.63;88.08
3960;BME280;1994;48.640;8.894;2024-02-04T08:18:00;97155.38;;;8.75;86.30
3960;BME280;1994;48.640;8.894;2024-02-04T08:20:26;97161.16;;;9.03;85.18
3960;BME280;1994;48.640;8.894;2024-02-04T08:22:54;97156.38;;;8.87;85.66
3960;BME280;1994;48.640;8.894;2024-02-04T08:25:20;97154.63;;;8.94;85.42
3960;BME280;1994;48.640;8.894;2024-02-04T08:27:46;97156.78;;;8.84;85.99
3960;BME280;1994;48.640;8.894;2024-02-04T08:30:12;97163.34;;;8.80;85.73
3960;BME280;1994;48.640;8.894;2024-02-04T08:32:39;97158.75;;;8.88;86.13
3960;BME280;1994;48.640;8.894;2024-02-04T08:35:05;97160.78;;;9.06;85.20
3960;BME280;1994;48.640;8.894;2024-02-04T08:37:32;97170.69;;;9.28;83.71
3960;BME280;1994;48.640;8.894;2024-02-04T08:39:59;97158.38;;;9.17;83.85
3960;BME280;1994;48.640;8.894;2024-02-04T08:42:24;97176.28;;;9.19;83.25
3960;BME280;1994;48.640;8.894;2024-02-04T08:44:50;97162.38;;;9.07;83.85
3960;BME280;1994;48.640;8.894;2024-02-04T08:47:16;97162.56;;;9.38;82.85
3960;BME280;1994;48.640;8.894;2024-02-04T08:49:43;97175.88;;;9.28;83.23
3960;BME280;1994;48.640;8.894;2024-02-04T08:52:08;97183.03;;;9.20;83.42
3960;BME280;1994;48.640;8.894;2024-02-04T08:54:34;97199.34;;;9.40;83.03
3960;BME280;1994;48.640;8.894;2024-02-04T08:57:00;97201.31;;;9.64;81.09
3960;BME280;1994;48.640;8.894;2024-02-04T08:59:26;97200.53;;;9.70;80.86
3960;BME280;1994;48.640;8.894;2024-02-04T09:01:52;97192.97;;;9.62;80.28
3960;BME280;1994;48.640;8.894;2024-02-04T09:04:17;97190.91;;;9.90;79.95
3960;BME280;1994;48.640;8.894;2024-02-04T09:06:43;97178.25;;;9.56;80.79
3960;BME280;1994;48.640;8.894;2024-02-04T09:09:09;97178.84;;;9.64;80.86
3960;BME280;1994;48.640;8.894;2024-02-04T09:11:35;97183.81;;;9.66;80.09
3960;BME280;1994;48.640;8.894;2024-02-04T09:14:01;97187.41;;;9.65;80.04
3960;BME280;1994;48.640;8.894;2024-02-04T09:16:29;97185.44;;;9.54;80.23
3960;BME280;1994;48.640;8.894;2024-02-04T09:18:54;97188.19;;;9.46;81.36
3960;BME280;1994;48.640;8.894;2024-02-04T09:21:20;97180.84;;;9.56;81.49
3960;BME280;1994;48.640;8.894;2024-02-04T09:23:46;97187.19;;;9.73;79.65
3960;BME280;1994;48.640;8.894;2024-02-04T09:26:12;97178.22;;;9.82;79.60
3960;BME280;1994;48.640;8.894;2024-02-04T09:28:37;97181.53;;;10.15;78.44
3960;BME280;1994;48.640;8.894;2024-02-04T09:31:03;97182.28;;;10.66;76.86
3960;BME280;1994;48.640;8.894;2024-02-04T09:33:29;97182.94;;;10.92;74.63
3960;BME280;1994;48.640;8.894;2024-02-04T09:35:55;97170.53;;;11.01;74.05
3960;BME280;1994;48.640;8.894;2024-02-04T09:38:21;97174.84;;;11.07;73.36
3960;BME280;1994;48.640;8.894;2024-02-04T09:40:47;97188.69;;;11.25;73.28
3960;BME280;1994;48.640;8.894;2024-02-04T09:43:13;97191.47;;;11.24;72.60
3960;BME280;1994;48.640;8.894;2024-02-04T09:45:39;97183.97;;;11.65;71.55
3960;BME280;1994;48.640;8.894;2024-02-04T09:48:08;97199.00;;;11.32;72.29
3960;BME280;1994;48.640;8.894;2024-02-04T09:50:33;97207.06;;;11.73;71.20
3960;BME280;1994;48.640;8.894;2024-02-04T09:52:59;97222.09;;;11.89;71.27
3960;BME280;1994;48.640;8.894;2024-02-04T09:55:27;97215.75;;;12.03;71.43
3960;BME280;1994;48.640;8.894;2024-02-04T09:57:55;97221.25;;;11.70;70.92
3960;BME280;1994;48.640;8.894;2024-02-04T10:00:21;97210.13;;;11.39;72.04
3960;BME280;1994;48.640;8.894;2024-02-04T10:02:50;97204.16;;;10.76;74.72
3960;BME280;1994;48.640;8.894;2024-02-04T10:05:16;97209.91;;;10.41;76.66
3960;BME280;1994;48.640;8.894;2024-02-04T10:07:42;97201.06;;;9.98;78.34
3960;BME280;1994;48.640;8.894;2024-02-04T10:10:08;97204.84;;;10.08;78.83
3960;BME280;1994;48.640;8.894;2024-02-04T10:12:35;97196.47;;;10.00;79.68
3960;BME280;1994;48.640;8.894;2024-02-04T10:15:04;97189.34;;;9.82;80.32
3960;BME280;1994;48.640;8.894;2024-02-04T10:17:31;97180.56;;;9.90;81.05
3960;BME280;1994;48.640;8.894;2024-02-04T10:19:58;97164.91;;;9.72;81.58
3960;BME280;1994;48.640;8.894;2024-02-04T10:22:26;97159.47;;;9.93;80.98
3960;BME280;1994;48.640;8.894;2024-02-04T10:24:53;97157.50;;;9.82;81.70
3960;BME280;1994;48.640;8.894;2024-02-04T10:27:19;97162.13;;;9.60;82.32
3960;BME280;1994;48.640;8.894;2024-02-04T10:29:46;97157.50;;;9.82;82.30
3960;BME280;1994;48.640;8.894;2024-02-04T10:32:11;97136.38;;;9.85;81.78
3960;BME280;1994;48.640;8.894;2024-02-04T10:34:38;97113.19;;;10.22;80.39
3960;BME280;1994;48.640;8.894;2024-02-04T10:37:05;97129.59;;;11.27;76.44
3960;BME280;1994;48.640;8.894;2024-02-04T10:39:31;97134.44;;;11.24;75.34
3960;BME280;1994;48.640;8.894;2024-02-04T10:42:02;97134.47;;;11.17;76.55
3960;BME280;1994;48.640;8.894;2024-02-04T10:44:36;97135.66;;;10.66;77.33
3960;BME280;1994;48.640;8.894;2024-02-04T10:47:06;97133.88;;;10.60;79.25
3960;BME280;1994;48.640;8.894;2024-02-04T10:49:37;97124.09;;;10.62;79.19
3960;BME280;1994;48.640;8.894;2024-02-04T10:52:07;97127.53;;;10.87;77.53
3960;BME280;1994;48.640;8.894;2024-02-04T10:54:35;97132.03;;;10.98;76.87
3960;BME280;1994;48.640;8.894;2024-02-04T10:57:05;97132.19;;;11.03;76.78
3960;BME280;1994;48.640;8.894;2024-02-04T10:59:37;97153.72;;;11.95;73.03
3960;BME280;1994;48.640;8.894;2024-02-04T11:02:05;97160.63;;;12.19;71.42
3960;BME280;1994;48.640;8.894;2024-02-04T11:04:33;97160.66;;;11.83;72.41
3960;BME280;1994;48.640;8.894;2024-02-04T11:07:01;97171.75;;;11.90;72.25
3960;BME280;1994;48.640;8.894;2024-02-04T11:09:27;97168.00;;;12.04;72.31
3960;BME280;1994;48.640;8.894;2024-02-04T11:11:56;97166.69;;;12.13;71.45
3960;BME280;1994;48.640;8.894;2024-02-04T11:14:24;97156.44;;;12.18;71.03
3960;BME280;1994;48.640;8.894;2024-02-04T11:17:21;97142.63;;;12.06;71.87
3960;BME280;1994;48.640;8.894;2024-02-04T11:20:08;97131.84;;;13.32;67.92
3960;BME280;1994;48.640;8.894;2024-02-04T11:25:52;97126.41;;;15.19;61.47
3960;BME280;1994;48.640;8.894;2024-02-04T11:28:21;97119.72;;;16.64;56.55
3960;BME280;1994;48.640;8.894;2024-02-04T11:30:48;97123.69;;;17.66;53.83
3960;BME280;1994;48.640;8.894;2024-02-04T11:33:19;97120.66;;;17.84;52.47
3960;BME280;1994;48.640;8.894;2024-02-04T11:35:46;97136.63;;;18.34;50.92
3960;BME280;1994;48.640;8.894;2024-02-04T11:38:12;97126.22;;;18.54;49.87
3960;BME280;1994;48.640;8.894;2024-02-04T11:40:42;97116.75;;;18.53;50.19
3960;BME280;1994;48.640;8.894;2024-02-04T11:43:11;97110.28;;;18.09;50.08
3960;BME280;1994;48.640;8.894;2024-02-04T11:45:42;97096.66;;;16.13;54.80
3960;BME280;1994;48.640;8.894;2024-02-04T11:48:12;97106.94;;;15.10;58.25
3960;BME280;1994;48.640;8.894;2024-02-04T11:50:38;97109.75;;;14.76;60.20
3960;BME280;1994;48.640;8.894;2024-02-04T11:53:10;97110.47;;;14.55;60.69
3960;BME280;1994;48.640;8.894;2024-02-04T11:55:39;97112.81;;;15.01;60.26
3960;BME280;1994;48.640;8.894;2024-02-04T11:58:06;97112.75;;;14.68;60.82
3960;BME280;1994;48.640;8.894;2024-02-04T12:00:33;97106.53;;;14.01;62.65
3960;BME280;1994;48.640;8.894;2024-02-04T12:03:07;97101.47;;;14.79;61.03
3960;BME280;1994;48.640;8.894;2024-02-04T12:05:38;97096.72;;;16.18;57.13
3960;BME280;1994;48.640;8.894;2024-02-04T12:08:07;97087.28;;;16.96;54.42
3960;BME280;1994;48.640;8.894;2024-02-04T12:10:35;97083.16;;;16.47;55.37
3960;BME280;1994;48.640;8.894;2024-02-04T12:13:06;97082.38;;;16.73;55.17
3960;BME280;1994;48.640;8.894;2024-02-04T12:15:35;97081.41;;;16.53;55.34
3960;BME280;1994;48.640;8.894;2024-02-04T12:18:08;97086.53;;;14.18;60.89
3960;BME280;1994;48.640;8.894;2024-02-04T12:20:36;97081.97;;;14.37;61.48
3960;BME280;1994;48.640;8.894;2024-02-04T12:23:06;97093.56;;;14.74;60.20
3960;BME280;1994;48.640;8.894;2024-02-04T12:25:34;97096.81;;;13.85;62.48
3960;BME280;1994;48.640;8.894;2024-02-04T12:28:02;97092.25;;;13.30;64.35
3960;BME280;1994;48.640;8.894;2024-02-04T12:30:30;97081.81;;;13.07;66.10
3960;BME280;1994;48.640;8.894;2024-02-04T12:33:01;97081.16;;;13.46;65.80
3960;BME280;1994;48.640;8.894;2024-02-04T12:35:28;97076.00;;;12.82;67.25
3960;BME280;1994;48.640;8.894;2024-02-04T12:37:56;97067.25;;;13.17;65.91
3960;BME280;1994;48.640;8.894;2024-02-04T12:40:30;97079.47;;;13.28;66.46
3960;BME280;1994;48.640;8.894;2024-02-04T12:43:01;97070.53;;;13.24;65.40
3960;BME280;1994;48.640;8.894;2024-02-04T12:45:28;97065.41;;;13.52;64.98
3960;BME280;1994;48.640;8.894;2024-02-04T12:47:56;97075.41;;;13.32;65.29
3960;BME280;1994;48.640;8.894;2024-02-04T12:50:23;97074.69;;;13.25;65.75
3960;BME280;1994;48.640;8.894;2024-02-04T12:53:06;97077.75;;;13.34;65.64
3960;BME280;1994;48.640;8.894;2024-02-04T12:55:36;97068.44;;;12.92;67.08
3960;BME280;1994;48.640;8.894;2024-02-04T12:58:10;97072.06;;;12.91;66.88
3960;BME280;1994;48.640;8.894;2024-02-04T13:00:38;97054.84;;;12.67;67.93
3960;BME280;1994;48.640;8.894;2024-02-04T13:03:06;97047.41;;;12.93;67.09
3960;BME280;1994;48.640;8.894;2024-02-04T13:05:37;97045.03;;;12.80;68.27
3960;BME280;1994;48.640;8.894;2024-02-04T13:08:04;97048.56;;;12.86;67.92
3960;BME280;1994;48.640;8.894;2024-02-04T13:10:35;97052.44;;;13.41;66.65
3960;BME280;1994;48.640;8.894;2024-02-04T13:13:08;97049.47;;;13.49;65.84
3960;BME280;1994;48.640;8.894;2024-02-04T13:15:43;97046.31;;;13.47;65.54
3960;BME280;1994;48.640;8.894;2024-02-04T13:18:10;97047.19;;;12.95;66.69
3960;BME280;1994;48.640;8.894;2024-02-04T13:20:38;97055.59;;;13.20;66.46
3960;BME280;1994;48.640;8.894;2024-02-04T13:23:04;97054.00;;;12.96;67.38
3960;BME280;1994;48.640;8.894;2024-02-04T13:25:31;97049.13;;;12.47;69.05
3960;BME280;1994;48.640;8.894;2024-02-04T13:27:57;97041.66;;;12.39;69.90
3960;BME280;1994;48.640;8.894;2024-02-04T13:30:23;97037.19;;;12.16;71.17
3960;BME280;1994;48.640;8.894;2024-02-04T13:32:50;97051.09;;;12.22;71.14